createdAt,value
2019-04-07T00:01:19.403Z,99.90
2019-04-07T00:03:46.062Z,99.90
2019-04-07T00:06:12.712Z,99.90
2019-04-07T00:08:39.588Z,99.90
2019-04-07T00:11:06.417Z,99.90
2019-04-07T00:13:32.998Z,99.90
2019-04-07T00:16:00.304Z,99.90
2019-04-07T00:18:28.239Z,99.90
2019-04-07T00:20:55.227Z,99.90
2019-04-07T00:23:21.817Z,99.90
2019-04-07T00:25:48.684Z,99.90
2019-04-07T00:28:15.267Z,99.90
2019-04-07T00:30:42.529Z,99.90
2019-04-07T00:33:09.282Z,99.90
2019-04-07T00:35:36.531Z,99.90
2019-04-07T00:38:09.582Z,99.90
2019-04-07T00:40:37.086Z,99.90
2019-04-07T00:43:04.516Z,99.90
2019-04-07T00:45:31.621Z,99.90
2019-04-07T00:47:59.632Z,99.90
2019-04-07T00:50:26.522Z,99.90
2019-04-07T00:52:53.171Z,99.90
2019-04-07T00:55:21.014Z,99.90
2019-04-07T00:57:48.242Z,99.90
2019-04-07T01:00:16.603Z,99.90
2019-04-07T01:02:44.078Z,99.90
2019-04-07T01:05:10.648Z,99.90
2019-04-07T01:07:37.241Z,99.90
2019-04-07T01:10:05.044Z,99.90
2019-04-07T01:12:31.942Z,99.90
2019-04-07T01:14:58.759Z,99.90
2019-04-07T01:17:26.945Z,99.90
2019-04-07T01:19:53.743Z,99.90
2019-04-07T01:22:20.816Z,99.90
2019-04-07T01:24:49.470Z,99.90
2019-04-07T01:27:16.096Z,99.90
2019-04-07T01:29:43.200Z,99.90
2019-04-07T01:32:10.246Z,99.90
2019-04-07T01:34:36.942Z,99.90
2019-04-07T01:37:03.630Z,99.90
2019-04-07T01:39:31.509Z,99.90
2019-04-07T01:41:58.983Z,99.90
2019-04-07T01:44:25.699Z,99.90
2019-04-07T01:46:52.486Z,99.90
2019-04-07T01:49:19.482Z,99.90
2019-04-07T01:51:46.504Z,99.90
2019-04-07T01:54:13.514Z,99.90
2019-04-07T01:56:40.268Z,99.90
2019-04-07T01:59:10.539Z,99.90
2019-04-07T02:01:36.465Z,99.90
2019-04-07T02:04:03.942Z,99.90
2019-04-07T02:06:31.142Z,99.90
2019-04-07T02:08:58.302Z,99.90
2019-04-07T02:11:25.150Z,99.90
2019-04-07T02:13:51.761Z,99.90
2019-04-07T02:16:19.182Z,99.90
2019-04-07T02:18:46.571Z,99.90
2019-04-07T02:21:13.332Z,99.90
2019-04-07T02:23:41.475Z,99.90
2019-04-07T02:26:08.769Z,99.90
2019-04-07T02:28:35.829Z,99.90
2019-04-07T02:31:02.670Z,99.90
2019-04-07T02:33:29.485Z,99.90
2019-04-07T02:36:12.080Z,99.90
2019-04-07T02:38:27.872Z,99.90
2019-04-07T02:40:55.715Z,99.90
2019-04-07T02:46:06.775Z,99.90
2019-04-07T02:48:33.894Z,99.90
2019-04-07T02:51:01.277Z,99.90
2019-04-07T02:53:28.827Z,99.90
2019-04-07T02:55:55.483Z,99.90
2019-04-07T02:58:22.821Z,99.90
2019-04-07T03:00:50.735Z,99.90
2019-04-07T03:03:18.688Z,99.90
2019-04-07T03:05:45.639Z,99.90
2019-04-07T03:08:12.290Z,99.90
2019-04-07T03:10:38.970Z,99.90
2019-04-07T03:13:06.212Z,99.90
2019-04-07T03:15:34.324Z,99.90
2019-04-07T03:18:01.083Z,99.90
2019-04-07T03:20:28.128Z,99.90
2019-04-07T03:22:55.903Z,99.90
2019-04-07T03:28:08.757Z,99.90
2019-04-07T03:30:38.150Z,99.90
2019-04-07T03:33:07.849Z,99.90
2019-04-07T03:35:34.803Z,99.90
2019-04-07T03:38:02.031Z,99.90
2019-04-07T03:40:28.686Z,99.90
2019-04-07T03:42:55.630Z,99.90
2019-04-07T03:45:22.518Z,99.90
2019-04-07T03:47:49.129Z,99.90
2019-04-07T03:50:16.587Z,99.90
2019-04-07T03:52:43.245Z,99.90
2019-04-07T03:55:10.116Z,99.90
2019-04-07T03:57:37.181Z,99.90
2019-04-07T04:00:04.215Z,99.90
2019-04-07T04:02:31.563Z,99.90
2019-04-07T04:04:58.493Z,99.90
2019-04-07T04:07:31.594Z,99.90
2019-04-07T04:09:53.791Z,99.90
2019-04-07T04:12:21.257Z,99.90
2019-04-07T04:14:48.732Z,99.90
2019-04-07T04:17:16.455Z,99.90
2019-04-07T04:19:43.994Z,99.90
2019-04-07T04:22:11.617Z,99.90
2019-04-07T04:24:38.280Z,99.90
2019-04-07T04:27:04.924Z,99.90
2019-04-07T04:29:31.821Z,99.90
2019-04-07T04:31:59.640Z,99.90
2019-04-07T04:34:27.135Z,99.90
2019-04-07T04:36:54.523Z,99.90
2019-04-07T04:39:21.487Z,99.90
2019-04-07T04:41:49.016Z,99.90
2019-04-07T04:44:18.449Z,99.90
2019-04-07T04:46:45.355Z,99.90
2019-04-07T04:49:12.019Z,99.90
2019-04-07T04:51:39.939Z,99.90
2019-04-07T04:54:08.313Z,99.90
2019-04-07T04:56:35.944Z,99.90
2019-04-07T04:59:02.727Z,99.90
2019-04-07T05:01:29.412Z,99.90
2019-04-07T05:03:56.020Z,99.90
2019-04-07T05:06:22.928Z,99.90
2019-04-07T05:08:49.972Z,99.90
2019-04-07T05:11:16.743Z,99.90
2019-04-07T05:13:44.621Z,99.90
2019-04-07T05:16:11.847Z,99.90
2019-04-07T05:18:38.715Z,99.90
2019-04-07T05:21:05.556Z,99.90
2019-04-07T05:26:18.965Z,99.90
2019-04-07T05:28:45.944Z,99.90
2019-04-07T05:31:13.286Z,99.90
2019-04-07T05:33:40.005Z,99.90
2019-04-07T05:36:06.975Z,99.90
2019-04-07T05:38:34.430Z,99.90
2019-04-07T05:41:01.694Z,99.90
2019-04-07T05:43:28.438Z,99.90
2019-04-07T05:45:55.492Z,99.90
2019-04-07T05:48:22.748Z,99.90
2019-04-07T05:50:49.337Z,99.90
2019-04-07T05:53:15.947Z,99.90
2019-04-07T05:55:42.818Z,99.90
2019-04-07T05:58:09.418Z,99.90
2019-04-07T06:00:36.230Z,99.90
2019-04-07T06:03:06.523Z,99.90
2019-04-07T06:05:31.127Z,99.90
2019-04-07T06:08:00.861Z,99.90
2019-04-07T06:10:28.689Z,99.90
2019-04-07T06:12:55.390Z,99.90
2019-04-07T06:15:23.388Z,99.90
2019-04-07T06:17:50.165Z,99.90
2019-04-07T06:20:18.896Z,99.90
2019-04-07T06:22:46.988Z,99.90
2019-04-07T06:25:14.167Z,99.90
2019-04-07T06:27:44.916Z,99.90
2019-04-07T06:30:09.786Z,99.90
2019-04-07T06:32:38.405Z,99.90
2019-04-07T06:35:05.092Z,99.90
2019-04-07T06:37:31.838Z,99.90
2019-04-07T06:40:01.083Z,99.90
2019-04-07T06:42:31.559Z,99.90
2019-04-07T06:44:56.684Z,99.90
2019-04-07T06:47:25.007Z,99.90
2019-04-07T06:49:52.072Z,99.90
2019-04-07T06:52:19.285Z,99.90
2019-04-07T06:54:52.024Z,99.90
2019-04-07T06:57:15.965Z,99.90
2019-04-07T06:59:45.640Z,99.90
2019-04-07T07:02:12.092Z,99.90
2019-04-07T07:04:41.587Z,99.90
2019-04-07T07:07:07.400Z,99.90
2019-04-07T07:09:34.025Z,99.90
2019-04-07T07:12:00.702Z,99.90
2019-04-07T07:14:38.034Z,99.90
2019-04-07T07:16:56.561Z,99.90
2019-04-07T07:19:26.341Z,99.90
2019-04-07T07:21:52.262Z,99.90
2019-04-07T07:24:25.405Z,99.90
2019-04-07T07:26:56.999Z,99.90
2019-04-07T07:29:22.359Z,99.90
2019-04-07T07:31:53.064Z,99.90
2019-04-07T07:34:30.454Z,99.90
2019-04-07T07:37:13.318Z,99.90
2019-04-07T07:39:57.976Z,99.90
2019-04-07T07:42:25.730Z,99.90
2019-04-07T07:44:53.569Z,99.20
2019-04-07T07:47:23.023Z,99.00
2019-04-07T07:50:08.956Z,98.40
2019-04-07T07:52:39.868Z,97.60
2019-04-07T07:55:13.104Z,98.30
2019-04-07T08:00:28.289Z,97.60
2019-04-07T08:02:56.144Z,97.50
2019-04-07T08:05:31.715Z,97.50
2019-04-07T08:08:02.407Z,98.90
2019-04-07T08:10:34.268Z,98.70
2019-04-07T08:13:07.868Z,96.70
2019-04-07T08:15:34.781Z,97.30
2019-04-07T08:18:07.041Z,97.40
2019-04-07T08:23:22.015Z,97.40
2019-04-07T08:25:52.905Z,97.10
2019-04-07T08:28:24.461Z,96.60
2019-04-07T08:30:56.419Z,94.70
2019-04-07T08:33:24.794Z,94.90
2019-04-07T08:35:54.874Z,94.90
2019-04-07T08:38:25.311Z,94.50
2019-04-07T08:41:10.173Z,95.70
2019-04-07T08:43:39.839Z,94.50
2019-04-07T08:46:11.109Z,93.60
2019-04-07T08:48:38.949Z,94.30
2019-04-07T08:51:11.266Z,91.80
2019-04-07T08:53:43.564Z,91.60
2019-04-07T08:56:13.176Z,92.30
2019-04-07T08:58:42.862Z,92.20
2019-04-07T09:01:10.524Z,92.30
2019-04-07T09:03:37.200Z,90.60
2019-04-07T09:06:04.565Z,89.20
2019-04-07T09:08:34.641Z,90.50
2019-04-07T09:11:06.056Z,90.40
2019-04-07T09:13:34.223Z,89.80
2019-04-07T09:16:01.159Z,86.80
2019-04-07T09:18:27.759Z,85.90
2019-04-07T09:23:40.416Z,82.40
2019-04-07T09:26:01.563Z,87.80
2019-04-07T09:28:28.521Z,86.80
2019-04-07T09:30:56.340Z,84.00
2019-04-07T09:33:27.603Z,83.20
2019-04-07T09:38:40.917Z,84.60
2019-04-07T09:41:09.480Z,86.90
2019-04-07T09:46:24.207Z,82.70
2019-04-07T09:48:52.825Z,84.40
2019-04-07T09:51:22.772Z,84.70
2019-04-07T09:53:52.398Z,84.30
2019-04-07T09:56:20.050Z,83.60
2019-04-07T09:58:47.653Z,82.50
2019-04-07T10:01:18.954Z,80.60
2019-04-07T10:03:42.765Z,80.10
2019-04-07T10:06:10.617Z,79.60
2019-04-07T10:08:40.841Z,82.10
2019-04-07T10:11:08.510Z,80.90
2019-04-07T10:13:49.664Z,78.90
2019-04-07T10:16:11.910Z,77.60
2019-04-07T10:18:40.101Z,80.00
2019-04-07T10:21:14.293Z,76.90
2019-04-07T10:23:40.695Z,76.60
2019-04-07T10:26:09.618Z,78.60
2019-04-07T10:28:40.901Z,76.30
2019-04-07T10:31:09.256Z,78.30
2019-04-07T10:33:37.813Z,76.10
2019-04-07T10:36:09.337Z,72.20
2019-04-07T10:38:41.427Z,74.00
2019-04-07T10:41:10.721Z,71.50
2019-04-07T10:46:28.344Z,72.90
2019-04-07T10:48:57.837Z,69.90
2019-04-07T10:51:34.378Z,70.40
2019-04-07T10:54:03.779Z,70.00
2019-04-07T10:56:30.849Z,71.00
2019-04-07T10:58:59.687Z,72.70
2019-04-07T11:01:33.632Z,75.10
2019-04-07T11:04:00.389Z,71.00
2019-04-07T11:06:27.321Z,68.00
2019-04-07T11:08:56.811Z,67.00
2019-04-07T11:11:28.597Z,68.30
2019-04-07T11:13:56.980Z,68.10
2019-04-07T11:16:27.254Z,68.30
2019-04-07T11:18:58.539Z,69.00
2019-04-07T11:21:34.950Z,70.30
2019-04-07T11:26:48.558Z,70.10
2019-04-07T11:29:26.285Z,65.50
2019-04-07T11:31:55.386Z,63.20
2019-04-07T11:34:28.222Z,68.90
2019-04-07T11:36:57.104Z,61.50
2019-04-07T11:39:33.711Z,63.70
2019-04-07T11:44:57.512Z,62.50
2019-04-07T11:47:26.538Z,64.00
2019-04-07T11:49:53.934Z,62.60
2019-04-07T11:52:21.042Z,63.20
2019-04-07T11:54:51.160Z,62.30
2019-04-07T11:58:03.645Z,62.30
2019-04-07T11:59:57.588Z,60.50
2019-04-07T12:02:28.853Z,64.80
2019-04-07T12:04:58.972Z,65.80
2019-04-07T12:07:31.131Z,65.70
2019-04-07T12:10:03.017Z,61.70
2019-04-07T12:12:31.125Z,59.60
2019-04-07T12:14:58.890Z,59.40
2019-04-07T12:17:25.655Z,59.40
2019-04-07T12:19:55.987Z,58.40
2019-04-07T12:22:23.698Z,56.60
2019-04-07T12:24:52.131Z,55.00
2019-04-07T12:27:21.605Z,53.50
2019-04-07T12:29:49.507Z,53.00
2019-04-07T12:32:17.058Z,53.30
2019-04-07T12:34:46.392Z,54.10
2019-04-07T12:37:12.899Z,54.00
2019-04-07T12:39:40.715Z,52.50
2019-04-07T12:42:08.480Z,53.10
2019-04-07T12:44:36.453Z,52.80
2019-04-07T12:47:03.275Z,53.40
2019-04-07T12:49:30.141Z,54.30
2019-04-07T12:51:57.108Z,52.50
2019-04-07T12:54:24.410Z,50.70
2019-04-07T12:56:51.288Z,52.70
2019-04-07T12:59:19.126Z,52.70
2019-04-07T13:01:48.481Z,52.50
2019-04-07T13:04:15.473Z,53.40
2019-04-07T13:06:45.222Z,55.10
2019-04-07T13:09:11.460Z,51.90
2019-04-07T13:11:42.748Z,52.40
2019-04-07T13:14:09.561Z,53.30
2019-04-07T13:16:35.960Z,54.30
2019-04-07T13:19:04.119Z,55.70
2019-04-07T13:21:32.208Z,53.20
2019-04-07T13:23:59.380Z,55.60
2019-04-07T13:26:30.255Z,54.80
2019-04-07T13:28:54.974Z,54.90
2019-04-07T13:31:21.848Z,55.80
2019-04-07T13:33:48.732Z,55.80
2019-04-07T13:36:16.010Z,55.80
2019-04-07T13:38:43.183Z,55.40
2019-04-07T13:41:10.469Z,56.90
2019-04-07T13:43:38.096Z,58.50
2019-04-07T13:46:04.736Z,56.40
2019-04-07T13:48:34.397Z,56.00
2019-04-07T13:51:01.075Z,56.70
2019-04-07T13:53:30.523Z,56.90
2019-04-07T13:55:57.247Z,57.00
2019-04-07T13:58:25.030Z,56.70
2019-04-07T14:00:52.972Z,57.70
2019-04-07T14:03:23.372Z,58.10
2019-04-07T14:05:49.096Z,57.20
2019-04-07T14:08:16.366Z,58.30
2019-04-07T14:10:43.939Z,59.40
2019-04-07T14:13:10.828Z,56.90
2019-04-07T14:15:37.634Z,58.60
2019-04-07T14:18:04.794Z,58.70
2019-04-07T14:20:31.808Z,59.70
2019-04-07T14:22:59.152Z,59.90
2019-04-07T14:25:26.779Z,60.30
2019-04-07T14:27:53.724Z,59.10
2019-04-07T14:30:21.298Z,60.50
2019-04-07T14:32:50.742Z,59.70
2019-04-07T14:35:19.419Z,60.70
2019-04-07T14:37:46.294Z,62.00
2019-04-07T14:40:13.285Z,62.90
2019-04-07T14:42:40.662Z,61.80
2019-04-07T14:45:07.807Z,62.60
2019-04-07T14:47:34.966Z,63.50
2019-04-07T14:50:02.035Z,64.10
2019-04-07T14:52:31.871Z,64.70
2019-04-07T14:54:59.911Z,63.00
2019-04-07T14:57:26.914Z,62.60
2019-04-07T14:59:54.534Z,63.00
2019-04-07T15:02:22.765Z,63.30
2019-04-07T15:04:50.946Z,63.30
2019-04-07T15:07:22.145Z,62.30
2019-04-07T15:09:50.009Z,61.60
2019-04-07T15:12:23.896Z,64.50
2019-04-07T15:14:48.041Z,64.90
2019-04-07T15:17:16.600Z,63.70
2019-04-07T15:19:44.212Z,64.20
2019-04-07T15:22:12.160Z,62.70
2019-04-07T15:24:39.582Z,63.70
2019-04-07T15:27:07.893Z,63.70
2019-04-07T15:29:39.418Z,63.60
2019-04-07T15:32:06.001Z,63.30
2019-04-07T15:34:33.265Z,63.20
2019-04-07T15:37:00.856Z,64.80
2019-04-07T15:39:28.912Z,63.20
2019-04-07T15:41:56.656Z,62.80
2019-04-07T15:44:23.473Z,63.00
2019-04-07T15:46:53.273Z,62.30
2019-04-07T15:49:20.475Z,62.10
2019-04-07T15:51:48.780Z,62.60
2019-04-07T15:54:22.322Z,64.30
2019-04-07T15:56:49.290Z,63.00
2019-04-07T15:59:17.639Z,64.30
2019-04-07T16:01:44.137Z,65.30
2019-04-07T16:04:11.767Z,65.40
2019-04-07T16:06:39.762Z,67.20
2019-04-07T16:09:11.799Z,66.60
2019-04-07T16:11:35.814Z,66.80
2019-04-07T16:14:08.692Z,67.50
2019-04-07T16:16:33.244Z,66.60
2019-04-07T16:19:00.159Z,66.10
2019-04-07T16:21:29.690Z,65.40
2019-04-07T16:23:56.063Z,61.30
2019-04-07T16:26:24.755Z,59.70
2019-04-07T16:28:51.994Z,59.40
2019-04-07T16:31:19.789Z,60.00
2019-04-07T16:33:47.522Z,60.80
2019-04-07T16:36:15.414Z,62.00
2019-04-07T16:38:44.083Z,66.10
2019-04-07T16:41:13.770Z,67.10
2019-04-07T16:43:41.991Z,69.50
2019-04-07T16:46:12.247Z,72.50
2019-04-07T16:48:40.246Z,74.80
2019-04-07T16:51:07.934Z,76.40
2019-04-07T16:53:37.928Z,80.50
2019-04-07T16:56:04.124Z,80.30
2019-04-07T16:58:35.319Z,81.50
2019-04-07T17:01:01.239Z,84.60
2019-04-07T17:03:29.579Z,88.00
2019-04-07T17:05:59.344Z,87.30
2019-04-07T17:11:13.993Z,90.80
2019-04-07T17:13:42.647Z,90.70
2019-04-07T17:16:11.851Z,91.70
2019-04-07T17:18:41.114Z,91.60
2019-04-07T17:21:09.487Z,92.40
2019-04-07T17:23:38.625Z,93.80
2019-04-07T17:26:14.449Z,94.50
2019-04-07T17:28:57.974Z,95.40
2019-04-07T17:31:27.084Z,96.30
2019-04-07T17:33:58.628Z,95.80
2019-04-07T17:36:25.309Z,95.90
2019-04-07T17:38:55.180Z,95.50
2019-04-07T17:41:25.846Z,95.20
2019-04-07T17:43:58.414Z,94.90
2019-04-07T17:46:30.628Z,95.00
2019-04-07T17:48:57.185Z,94.90
2019-04-07T17:51:26.134Z,95.40
2019-04-07T17:53:53.950Z,95.40
2019-04-07T17:56:43.144Z,96.00
2019-04-07T17:59:04.443Z,96.10
2019-04-07T18:01:44.523Z,96.20
2019-04-07T18:04:03.701Z,96.90
2019-04-07T18:06:40.639Z,97.70
2019-04-07T18:09:07.942Z,98.90
2019-04-07T18:14:10.391Z,98.20
2019-04-07T18:16:40.737Z,98.20
2019-04-07T18:19:15.561Z,98.00
2019-04-07T18:21:51.517Z,98.00
2019-04-07T18:24:18.075Z,98.60
2019-04-07T18:26:48.133Z,99.10
2019-04-07T18:29:29.406Z,99.70
2019-04-07T18:32:02.822Z,99.90
2019-04-07T18:34:31.452Z,99.50
2019-04-07T18:36:59.938Z,99.00
2019-04-07T18:39:27.483Z,99.60
2019-04-07T18:41:56.094Z,99.10
2019-04-07T18:44:42.827Z,98.20
2019-04-07T18:50:04.063Z,98.70
2019-04-07T18:52:30.567Z,99.90
2019-04-07T18:55:05.757Z,99.90
2019-04-07T18:57:32.480Z,99.70
2019-04-07T19:00:04.145Z,99.50
2019-04-07T19:02:30.103Z,98.70
2019-04-07T19:05:00.198Z,98.30
2019-04-07T19:07:29.216Z,98.40
2019-04-07T19:10:06.463Z,98.60
2019-04-07T19:12:29.990Z,98.70
2019-04-07T19:15:08.044Z,98.80
2019-04-07T19:17:33.640Z,98.00
2019-04-07T19:19:59.862Z,98.40
2019-04-07T19:22:31.419Z,98.40
2019-04-07T19:27:43.544Z,98.80
2019-04-07T19:30:13.100Z,98.30
2019-04-07T19:32:38.882Z,98.10
2019-04-07T19:35:05.861Z,98.10
2019-04-07T19:37:32.775Z,97.60
2019-04-07T19:40:01.557Z,98.40
2019-04-07T19:42:28.525Z,99.90
2019-04-07T19:44:55.506Z,99.90
2019-04-07T19:47:22.700Z,99.90
2019-04-07T19:49:50.518Z,99.90
2019-04-07T19:52:17.798Z,99.90
2019-04-07T19:54:49.457Z,99.90
2019-04-07T19:57:14.247Z,99.80
2019-04-07T19:59:42.896Z,99.50
2019-04-07T20:02:09.672Z,99.90
2019-04-07T20:04:37.179Z,99.90
2019-04-07T20:07:04.878Z,99.00
2019-04-07T20:09:32.119Z,99.10
2019-04-07T20:12:02.215Z,99.10
2019-04-07T20:14:28.451Z,99.40
2019-04-07T20:16:55.612Z,98.90
2019-04-07T20:19:22.424Z,97.90
2019-04-07T20:21:54.704Z,97.30
2019-04-07T20:24:17.744Z,97.80
2019-04-07T20:26:44.968Z,96.90
2019-04-07T20:29:11.991Z,95.90
2019-04-07T20:31:38.733Z,96.60
2019-04-07T20:34:06.120Z,97.20
2019-04-07T20:36:33.786Z,96.40
2019-04-07T20:39:00.723Z,96.80
2019-04-07T20:41:28.149Z,98.10
2019-04-07T20:43:55.764Z,98.20
2019-04-07T20:46:23.881Z,99.20
2019-04-07T20:48:50.676Z,99.10
2019-04-07T20:51:17.914Z,98.80
2019-04-07T20:53:45.157Z,98.20
2019-04-07T20:56:13.001Z,97.60
2019-04-07T20:58:46.403Z,98.20
2019-04-07T21:01:11.308Z,98.30
2019-04-07T21:03:36.559Z,98.30
2019-04-07T21:06:06.412Z,99.30
2019-04-07T21:08:34.278Z,99.50
2019-04-07T21:11:01.556Z,99.20
2019-04-07T21:13:28.946Z,98.60
2019-04-07T21:15:55.554Z,98.70
2019-04-07T21:18:23.655Z,98.30
2019-04-07T21:20:50.902Z,97.90
2019-04-07T21:23:19.481Z,97.60
2019-04-07T21:25:47.890Z,98.40
2019-04-07T21:28:14.516Z,98.50
2019-04-07T21:33:31.373Z,97.80
2019-04-07T21:36:13.001Z,97.50
2019-04-07T21:38:41.587Z,97.90
2019-04-07T21:41:19.342Z,98.40
2019-04-07T21:43:47.090Z,98.50
2019-04-07T21:46:22.415Z,98.60
2019-04-07T21:48:48.703Z,97.60
2019-04-07T21:51:19.776Z,97.90
2019-04-07T21:53:50.408Z,97.90
2019-04-07T21:56:22.211Z,97.10
2019-04-07T21:58:48.633Z,97.00
2019-04-07T22:01:19.944Z,97.90
2019-04-07T22:03:49.319Z,98.30
2019-04-07T22:06:17.733Z,98.20
2019-04-07T22:08:46.687Z,98.30
2019-04-07T22:11:13.269Z,98.50
2019-04-07T22:13:40.748Z,98.20
2019-04-07T22:16:07.997Z,98.10
2019-04-07T22:18:37.518Z,98.10
2019-04-07T22:21:03.406Z,98.80
2019-04-07T22:23:31.803Z,99.20
2019-04-07T22:26:12.638Z,98.70
2019-04-07T22:28:36.144Z,98.50
2019-04-07T22:31:03.625Z,98.30
2019-04-07T22:33:32.428Z,98.30
2019-04-07T22:35:59.618Z,98.40
2019-04-07T22:38:27.350Z,98.90
2019-04-07T22:40:54.609Z,98.90
2019-04-07T22:43:21.299Z,98.40
2019-04-07T22:45:55.771Z,98.00
2019-04-07T22:48:16.498Z,97.60
2019-04-07T22:50:43.461Z,98.80
2019-04-07T22:55:58.966Z,99.10
2019-04-07T22:58:25.839Z,99.20
2019-04-07T23:00:52.417Z,98.70
2019-04-07T23:03:19.658Z,98.50
2019-04-07T23:05:47.063Z,98.80
2019-04-07T23:08:14.545Z,99.90
2019-04-07T23:10:42.215Z,99.90
2019-04-07T23:13:13.288Z,99.70
2019-04-07T23:15:45.631Z,99.90
2019-04-07T23:18:13.770Z,99.90
2019-04-07T23:20:44.462Z,99.90
2019-04-07T23:23:15.390Z,99.90
2019-04-07T23:28:30.672Z,99.90
2019-04-07T23:30:59.035Z,99.90
2019-04-07T23:33:27.641Z,99.90
2019-04-07T23:35:57.514Z,99.90
2019-04-07T23:38:30.446Z,99.90
2019-04-07T23:41:03.293Z,99.90
2019-04-07T23:43:39.996Z,99.90
2019-04-07T23:46:05.126Z,99.90
2019-04-07T23:48:36.185Z,99.90
2019-04-07T23:51:09.032Z,99.90
2019-04-07T23:53:36.481Z,99.90
2019-04-07T23:56:10.044Z,99.90
